createdAt,value
2022-09-03T00:00:57.695Z,13.70
2022-09-03T00:03:32.119Z,13.60
2022-09-03T00:06:13.335Z,13.60
2022-09-03T00:08:47.545Z,13.50
2022-09-03T00:11:22.094Z,13.50
2022-09-03T00:13:55.924Z,13.50
2022-09-03T00:16:26.734Z,13.40
2022-09-03T00:19:00.610Z,13.40
2022-09-03T00:21:39.484Z,13.40
2022-09-03T00:24:11.031Z,13.30
2022-09-03T00:26:46.312Z,13.30
2022-09-03T00:29:18.074Z,13.20
2022-09-03T00:31:50.350Z,13.20
2022-09-03T00:34:24.098Z,13.30
2022-09-03T00:36:54.098Z,13.20
2022-09-03T00:39:23.841Z,13.30
2022-09-03T00:42:07.876Z,13.20
2022-09-03T00:45:00.995Z,13.20
2022-09-03T00:47:37.549Z,13.20
2022-09-03T00:50:16.079Z,13.20
2022-09-03T00:52:54.719Z,13.20
2022-09-03T00:55:33.336Z,13.20
2022-09-03T00:58:18.675Z,13.20
2022-09-03T01:00:47.016Z,13.20
2022-09-03T01:03:26.523Z,13.30
2022-09-03T01:06:06.352Z,13.30
2022-09-03T01:08:53.286Z,13.30
2022-09-03T01:11:27.521Z,13.30
2022-09-03T01:14:03.170Z,13.20
2022-09-03T01:16:38.428Z,13.10
2022-09-03T01:19:16.329Z,13.10
2022-09-03T01:22:07.262Z,13.00
2022-09-03T01:24:59.265Z,12.90
2022-09-03T01:27:40.126Z,12.90
2022-09-03T01:30:18.337Z,13.00
2022-09-03T01:32:54.499Z,13.00
2022-09-03T01:35:28.879Z,13.00
2022-09-03T01:38:10.491Z,13.00
2022-09-03T01:40:47.983Z,13.00
2022-09-03T01:43:40.017Z,13.00
2022-09-03T01:46:19.671Z,13.00
2022-09-03T01:49:00.823Z,13.10
2022-09-03T01:51:31.284Z,13.00
2022-09-03T01:54:21.101Z,12.90
2022-09-03T01:57:19.171Z,12.90
2022-09-03T02:00:02.716Z,13.60
2022-09-03T02:02:33.093Z,12.80
2022-09-03T02:05:02.905Z,12.90
2022-09-03T02:07:34.813Z,12.80
2022-09-03T02:10:05.084Z,12.80
2022-09-03T02:12:35.528Z,12.70
2022-09-03T02:15:07.195Z,12.80
2022-09-03T02:17:37.412Z,12.80
2022-09-03T02:20:08.972Z,12.70
2022-09-03T02:22:36.979Z,12.80
2022-09-03T02:25:05.537Z,12.60
2022-09-03T02:27:33.747Z,12.70
2022-09-03T02:30:02.141Z,12.70
2022-09-03T02:32:30.334Z,12.70
2022-09-03T02:34:59.999Z,12.80
2022-09-03T02:37:28.068Z,12.80
2022-09-03T02:39:56.088Z,12.80
2022-09-03T02:42:24.130Z,12.70
2022-09-03T02:44:56.195Z,12.70
2022-09-03T02:47:26.534Z,12.70
2022-09-03T02:49:54.512Z,12.70
2022-09-03T02:52:23.903Z,12.70
2022-09-03T02:54:51.905Z,12.70
2022-09-03T02:57:27.421Z,12.60
2022-09-03T02:59:55.662Z,12.70
2022-09-03T03:02:23.743Z,12.70
2022-09-03T03:04:51.804Z,12.70
2022-09-03T03:07:19.811Z,12.60
2022-09-03T03:09:49.161Z,12.60
2022-09-03T03:12:17.520Z,12.70
2022-09-03T03:14:45.521Z,12.70
2022-09-03T03:17:13.580Z,12.60
2022-09-03T03:19:41.574Z,12.70
2022-09-03T03:22:09.604Z,12.60
2022-09-03T03:24:38.108Z,12.50
2022-09-03T03:27:10.762Z,12.50
2022-09-03T03:29:39.630Z,12.50
2022-09-03T03:32:07.621Z,12.40
2022-09-03T03:34:35.597Z,12.40
2022-09-03T03:37:04.616Z,12.40
2022-09-03T03:39:32.663Z,12.40
2022-09-03T03:42:00.797Z,12.40
2022-09-03T03:44:30.247Z,12.40
2022-09-03T03:46:58.244Z,12.40
2022-09-03T03:49:26.350Z,12.30
2022-09-03T03:51:54.317Z,12.30
2022-09-03T03:54:22.529Z,12.20
2022-09-03T03:56:55.688Z,12.20
2022-09-03T03:59:23.974Z,12.10
2022-09-03T04:01:56.498Z,12.00
2022-09-03T04:04:24.631Z,12.00
2022-09-03T04:06:52.611Z,12.10
2022-09-03T04:09:20.702Z,12.10
2022-09-03T04:11:48.673Z,12.00
2022-09-03T04:14:17.971Z,12.00
2022-09-03T04:16:46.871Z,11.90
2022-09-03T04:19:16.279Z,12.00
2022-09-03T04:21:44.736Z,12.00
2022-09-03T04:24:13.164Z,12.10
2022-09-03T04:26:41.588Z,12.10
2022-09-03T04:29:11.159Z,12.10
2022-09-03T04:32:00.020Z,12.10
2022-09-03T04:34:30.137Z,12.00
2022-09-03T04:36:59.134Z,12.10
2022-09-03T04:39:28.057Z,12.10
2022-09-03T04:41:56.118Z,12.10
2022-09-03T04:44:24.091Z,12.10
2022-09-03T04:46:53.310Z,12.10
2022-09-03T04:49:21.607Z,12.10
2022-09-03T04:51:51.022Z,12.10
2022-09-03T04:54:18.999Z,12.30
2022-09-03T04:56:47.123Z,12.30
2022-09-03T04:59:15.866Z,12.20
2022-09-03T05:01:44.963Z,12.30
2022-09-03T05:04:13.341Z,12.30
2022-09-03T05:06:41.332Z,12.20
2022-09-03T05:09:10.668Z,12.20
2022-09-03T05:11:38.699Z,12.30
2022-09-03T05:14:07.303Z,12.30
2022-09-03T05:16:35.361Z,12.30
2022-09-03T05:19:03.745Z,12.40
2022-09-03T05:21:31.744Z,12.30
2022-09-03T05:24:01.142Z,12.40
2022-09-03T05:26:32.417Z,12.50
2022-09-03T05:29:02.546Z,12.50
2022-09-03T05:31:32.597Z,12.50
2022-09-03T05:34:02.668Z,12.60
2022-09-03T05:36:34.687Z,12.60
2022-09-03T05:39:02.929Z,12.70
2022-09-03T05:41:34.321Z,12.70
2022-09-03T05:44:02.587Z,12.80
2022-09-03T05:46:33.124Z,12.80
2022-09-03T05:49:02.227Z,12.90
2022-09-03T05:51:31.557Z,12.90
2022-09-03T05:54:00.077Z,12.90
2022-09-03T05:56:31.148Z,13.00
2022-09-03T05:59:03.164Z,13.00
2022-09-03T06:01:32.730Z,13.10
2022-09-03T06:04:02.388Z,13.10
2022-09-03T06:06:32.275Z,13.00
2022-09-03T06:09:02.511Z,13.10
2022-09-03T06:11:32.954Z,13.10
2022-09-03T06:14:05.119Z,13.20
2022-09-03T06:16:34.671Z,13.20
2022-09-03T06:19:03.016Z,13.20
2022-09-03T06:21:31.131Z,13.30
2022-09-03T06:24:00.277Z,13.30
2022-09-03T06:26:29.741Z,13.40
2022-09-03T06:29:00.001Z,13.50
2022-09-03T06:31:29.417Z,13.60
2022-09-03T06:34:02.022Z,13.60
2022-09-03T06:36:32.069Z,13.70
2022-09-03T06:39:00.472Z,13.70
2022-09-03T06:41:35.435Z,13.80
2022-09-03T06:44:05.882Z,13.90
2022-09-03T06:46:38.933Z,14.00
2022-09-03T06:49:08.464Z,14.20
2022-09-03T06:51:37.774Z,14.20
2022-09-03T06:54:07.784Z,14.30
2022-09-03T06:56:40.280Z,14.40
2022-09-03T06:59:10.280Z,14.50
2022-09-03T07:01:43.516Z,14.50
2022-09-03T07:04:14.025Z,14.60
2022-09-03T07:06:43.229Z,14.70
2022-09-03T07:09:12.872Z,14.70
2022-09-03T07:11:48.191Z,14.80
2022-09-03T07:14:18.367Z,14.80
2022-09-03T07:16:49.222Z,14.90
2022-09-03T07:19:17.921Z,15.00
2022-09-03T07:21:50.053Z,15.00
2022-09-03T07:24:19.544Z,15.20
2022-09-03T07:26:48.918Z,15.20
2022-09-03T07:29:20.429Z,15.30
2022-09-03T07:31:52.946Z,15.30
2022-09-03T07:34:25.312Z,15.40
2022-09-03T07:36:53.958Z,15.50
2022-09-03T07:39:22.196Z,15.80
2022-09-03T07:41:50.686Z,16.20
2022-09-03T07:44:20.441Z,16.30
2022-09-03T07:46:51.790Z,16.40
2022-09-03T07:49:21.796Z,16.50
2022-09-03T07:51:53.445Z,16.40
2022-09-03T07:54:21.953Z,16.40
2022-09-03T07:56:50.068Z,16.50
2022-09-03T07:59:18.192Z,16.40
2022-09-03T08:01:46.285Z,16.40
2022-09-03T08:04:15.746Z,16.60
2022-09-03T08:06:43.834Z,16.60
2022-09-03T08:09:13.826Z,16.80
2022-09-03T08:11:43.639Z,17.20
2022-09-03T08:14:13.046Z,17.10
2022-09-03T08:16:43.302Z,17.30
2022-09-03T08:19:13.236Z,17.40
2022-09-03T08:21:42.966Z,17.60
2022-09-03T08:24:12.115Z,17.70
2022-09-03T08:26:41.981Z,18.00
2022-09-03T08:29:10.530Z,18.20
2022-09-03T08:31:39.341Z,18.00
2022-09-03T08:34:08.569Z,18.00
2022-09-03T08:36:38.848Z,18.10
2022-09-03T08:39:10.232Z,18.10
2022-09-03T08:42:03.712Z,18.30
2022-09-03T08:44:37.512Z,18.30
2022-09-03T08:47:11.523Z,18.30
2022-09-03T08:49:46.281Z,18.20
2022-09-03T08:52:23.899Z,18.00
2022-09-03T08:54:58.654Z,17.80
2022-09-03T08:57:27.235Z,17.60
2022-09-03T08:59:57.256Z,18.00
2022-09-03T09:02:35.433Z,18.10
2022-09-03T09:05:14.302Z,18.20
2022-09-03T09:07:50.243Z,18.20
2022-09-03T09:10:25.702Z,18.10
2022-09-03T09:13:10.545Z,18.20
2022-09-03T09:15:49.865Z,18.50
2022-09-03T09:18:25.960Z,18.60
2022-09-03T09:21:00.454Z,18.40
2022-09-03T09:23:32.245Z,18.40
2022-09-03T09:26:05.772Z,18.60
2022-09-03T09:28:36.507Z,18.70
2022-09-03T09:31:07.750Z,18.60
2022-09-03T09:33:36.205Z,18.60
2022-09-03T09:36:08.501Z,18.90
2022-09-03T09:38:38.755Z,19.10
2022-09-03T09:41:13.236Z,19.10
2022-09-03T09:43:41.676Z,18.90
2022-09-03T09:46:14.927Z,18.70
2022-09-03T09:48:51.786Z,18.50
2022-09-03T09:51:22.517Z,18.50
2022-09-03T09:54:02.301Z,18.80
2022-09-03T09:56:31.807Z,19.00
2022-09-03T09:59:07.793Z,19.10
2022-09-03T10:01:38.971Z,19.00
2022-09-03T10:04:12.266Z,19.00
2022-09-03T10:06:57.172Z,19.00
2022-09-03T10:09:30.959Z,19.00
2022-09-03T10:12:11.208Z,18.70
2022-09-03T10:14:43.677Z,18.30
2022-09-03T10:17:19.816Z,18.60
2022-09-03T10:20:11.482Z,18.70
2022-09-03T10:22:56.387Z,18.80
2022-09-03T10:25:30.214Z,18.90
2022-09-03T10:28:02.114Z,19.00
2022-09-03T10:30:40.388Z,18.80
2022-09-03T10:33:16.827Z,18.60
2022-09-03T10:35:48.129Z,18.60
2022-09-03T10:38:22.969Z,18.70
2022-09-03T10:40:56.370Z,18.80
2022-09-03T10:43:52.891Z,18.90
2022-09-03T10:46:27.562Z,18.90
2022-09-03T10:49:16.886Z,18.70
2022-09-03T10:51:52.682Z,18.70
2022-09-03T10:54:38.039Z,18.60
2022-09-03T10:57:15.246Z,18.70
2022-09-03T10:59:57.837Z,18.50
2022-09-03T11:02:57.091Z,18.70
2022-09-03T11:05:30.955Z,18.80
2022-09-03T11:08:02.884Z,18.90
2022-09-03T11:10:33.437Z,19.20
2022-09-03T11:13:07.293Z,19.20
2022-09-03T11:15:42.273Z,19.10
2022-09-03T11:18:17.898Z,19.20
2022-09-03T11:20:47.497Z,19.30
2022-09-03T11:23:16.859Z,19.00
2022-09-03T11:25:50.723Z,18.90
2022-09-03T11:28:33.224Z,18.90
2022-09-03T11:31:17.766Z,18.80
2022-09-03T11:33:50.519Z,19.10
2022-09-03T11:36:29.792Z,19.30
2022-09-03T11:38:57.844Z,19.30
2022-09-03T11:41:28.232Z,19.50
2022-09-03T11:43:59.066Z,19.50
2022-09-03T11:46:33.225Z,19.30
2022-09-03T11:49:13.405Z,19.20
2022-09-03T11:51:44.111Z,19.40
2022-09-03T11:54:26.709Z,19.40
2022-09-03T11:57:11.667Z,19.20
2022-09-03T11:59:41.292Z,19.40
2022-09-03T12:02:24.287Z,19.30
2022-09-03T12:05:11.602Z,19.20
2022-09-03T12:08:08.690Z,19.50
2022-09-03T12:10:44.454Z,19.30
2022-09-03T12:13:44.621Z,19.50
2022-09-03T12:16:36.961Z,19.70
2022-09-03T12:19:14.495Z,19.60
2022-09-03T12:21:42.540Z,19.80
2022-09-03T12:24:13.659Z,19.50
2022-09-03T12:26:44.186Z,19.20
2022-09-03T12:29:27.690Z,18.90
2022-09-03T12:31:57.373Z,18.90
2022-09-03T12:34:27.425Z,18.90
2022-09-03T12:36:56.083Z,19.20
2022-09-03T12:42:19.752Z,19.30
2022-09-03T12:44:47.793Z,19.20
2022-09-03T12:47:35.755Z,19.10
2022-09-03T12:50:11.229Z,19.10
2022-09-03T12:52:45.352Z,19.10
2022-09-03T12:55:27.451Z,19.20
2022-09-03T12:58:02.808Z,19.20
2022-09-03T13:00:33.894Z,19.40
2022-09-03T13:03:07.723Z,19.20
2022-09-03T13:05:44.604Z,19.30
2022-09-03T13:08:21.206Z,19.60
2022-09-03T13:10:54.303Z,19.90
2022-09-03T13:13:27.913Z,20.10
2022-09-03T13:16:31.046Z,20.00
2022-09-03T13:19:08.201Z,20.00
2022-09-03T13:21:49.587Z,19.90
2022-09-03T13:24:35.355Z,19.70
2022-09-03T13:27:12.225Z,19.60
2022-09-03T13:29:58.322Z,19.50
2022-09-03T13:32:35.835Z,19.60
2022-09-03T13:35:11.628Z,19.30
2022-09-03T13:37:44.852Z,19.20
2022-09-03T13:40:19.308Z,19.40
2022-09-03T13:42:54.344Z,19.60
2022-09-03T13:45:32.591Z,19.50
2022-09-03T13:48:26.517Z,19.70
2022-09-03T13:51:01.003Z,19.80
2022-09-03T13:53:43.275Z,19.90
2022-09-03T13:56:22.240Z,20.00
2022-09-03T13:58:55.396Z,20.00
2022-09-03T14:01:29.283Z,19.90
2022-09-03T14:04:01.686Z,19.70
2022-09-03T14:06:42.170Z,19.70
2022-09-03T14:09:19.951Z,19.60
2022-09-03T14:11:56.024Z,19.50
2022-09-03T14:14:38.482Z,19.40
2022-09-03T14:17:14.729Z,19.40
2022-09-03T14:19:49.829Z,19.30
2022-09-03T14:22:23.204Z,19.30
2022-09-03T14:24:56.559Z,19.50
2022-09-03T14:27:27.040Z,19.50
2022-09-03T14:30:00.946Z,19.40
2022-09-03T14:32:35.702Z,19.30
2022-09-03T14:35:25.075Z,19.30
2022-09-03T14:38:12.940Z,19.10
2022-09-03T14:40:46.767Z,19.00
2022-09-03T14:43:34.456Z,19.00
2022-09-03T14:46:16.854Z,19.10
2022-09-03T14:49:16.634Z,19.20
2022-09-03T14:52:03.514Z,19.20
2022-09-03T14:54:58.412Z,19.20
2022-09-03T14:57:47.008Z,19.20
2022-09-03T15:00:18.385Z,19.20
2022-09-03T15:03:13.055Z,19.20
2022-09-03T15:05:51.679Z,19.20
2022-09-03T15:08:34.737Z,19.20
2022-09-03T15:11:04.995Z,19.20
2022-09-03T15:13:43.484Z,19.20
2022-09-03T15:16:30.011Z,19.10
2022-09-03T15:19:11.608Z,19.20
2022-09-03T15:22:03.392Z,19.20
2022-09-03T15:24:44.165Z,19.20
2022-09-03T15:27:33.155Z,19.20
2022-09-03T15:30:08.029Z,19.20
2022-09-03T15:32:48.884Z,19.20
2022-09-03T15:35:33.585Z,19.30
2022-09-03T15:38:05.224Z,19.20
2022-09-03T15:40:38.164Z,19.30
2022-09-03T15:43:13.383Z,19.20
2022-09-03T15:45:57.647Z,19.10
2022-09-03T15:48:33.556Z,19.00
2022-09-03T15:51:13.917Z,19.00
2022-09-03T15:53:51.222Z,19.10
2022-09-03T15:56:25.675Z,19.00
2022-09-03T15:59:01.363Z,19.00
2022-09-03T16:01:36.752Z,19.00
2022-09-03T16:04:20.785Z,18.80
2022-09-03T16:06:56.526Z,18.80
2022-09-03T16:09:33.680Z,18.80
2022-09-03T16:12:15.831Z,18.80
2022-09-03T16:14:48.058Z,18.90
2022-09-03T16:17:27.333Z,18.90
2022-09-03T16:20:00.626Z,18.80
2022-09-03T16:22:30.922Z,18.90
2022-09-03T16:25:02.697Z,18.80
2022-09-03T16:27:37.697Z,18.60
2022-09-03T16:30:11.272Z,18.50
2022-09-03T16:32:57.721Z,18.40
2022-09-03T16:35:35.576Z,18.30
2022-09-03T16:38:15.105Z,18.30
2022-09-03T16:40:49.095Z,18.20
2022-09-03T16:43:40.094Z,18.20
2022-09-03T16:46:27.162Z,18.10
2022-09-03T16:49:11.316Z,17.90
2022-09-03T16:51:45.646Z,17.90
2022-09-03T16:54:29.402Z,17.80
2022-09-03T16:57:08.409Z,17.70
2022-09-03T17:00:03.849Z,17.70
2022-09-03T17:03:03.699Z,17.50
2022-09-03T17:06:08.686Z,17.50
2022-09-03T17:08:45.932Z,17.40
2022-09-03T17:11:28.431Z,17.30
2022-09-03T17:14:05.567Z,17.30
2022-09-03T17:16:47.539Z,17.20
2022-09-03T17:19:25.851Z,17.20
2022-09-03T17:22:07.240Z,17.00
2022-09-03T17:24:42.349Z,17.00
2022-09-03T17:27:32.072Z,16.90
2022-09-03T17:30:12.494Z,16.90
2022-09-03T17:33:01.709Z,16.80
2022-09-03T17:35:38.252Z,16.80
2022-09-03T17:38:28.444Z,16.70
2022-09-03T17:41:06.603Z,16.70
2022-09-03T17:43:45.819Z,16.70
2022-09-03T17:46:27.108Z,16.60
2022-09-03T17:48:56.431Z,16.50
2022-09-03T17:51:35.199Z,16.50
2022-09-03T17:54:11.789Z,16.50
2022-09-03T17:56:56.279Z,16.50
2022-09-03T17:59:36.146Z,16.50
2022-09-03T18:02:11.667Z,16.50
2022-09-03T18:04:49.508Z,16.40
2022-09-03T18:07:27.734Z,16.40
2022-09-03T18:10:07.923Z,16.40
2022-09-03T18:12:44.455Z,16.30
2022-09-03T18:15:30.345Z,16.30
2022-09-03T18:18:04.000Z,16.30
2022-09-03T18:21:22.007Z,16.20
2022-09-03T18:24:12.727Z,16.20
2022-09-03T18:27:04.462Z,16.20
2022-09-03T18:29:55.008Z,16.10
2022-09-03T18:32:40.964Z,16.10
2022-09-03T18:35:27.893Z,16.10
2022-09-03T18:38:14.071Z,16.10
2022-09-03T18:41:08.671Z,16.00
2022-09-03T18:44:00.281Z,16.00
2022-09-03T18:48:01.181Z,16.00
2022-09-03T18:50:05.946Z,15.90
2022-09-03T18:53:02.668Z,15.90
2022-09-03T18:56:01.309Z,15.90
2022-09-03T18:58:55.730Z,15.80
2022-09-03T19:01:49.610Z,15.80
2022-09-03T19:04:43.069Z,15.80
2022-09-03T19:07:31.735Z,15.70
2022-09-03T19:10:21.266Z,15.70
2022-09-03T19:13:35.320Z,15.70
2022-09-03T19:16:27.330Z,15.70
2022-09-03T19:19:36.143Z,15.60
2022-09-03T19:22:26.964Z,15.60
2022-09-03T19:25:18.406Z,15.50
2022-09-03T19:28:13.175Z,15.50
2022-09-03T19:31:15.238Z,15.40
2022-09-03T19:34:12.115Z,15.40
2022-09-03T19:37:06.986Z,15.30
2022-09-03T19:40:10.101Z,15.30
2022-09-03T19:43:08.786Z,15.20
2022-09-03T19:46:02.189Z,15.20
2022-09-03T19:48:59.037Z,15.10
2022-09-03T19:51:52.930Z,15.20
2022-09-03T19:54:43.531Z,15.10
2022-09-03T19:57:31.534Z,15.00
2022-09-03T20:00:17.733Z,15.10
2022-09-03T20:03:17.276Z,15.10
2022-09-03T20:06:07.597Z,15.00
2022-09-03T20:08:56.182Z,14.90
2022-09-03T20:11:27.804Z,15.00
2022-09-03T20:14:16.179Z,14.90
2022-09-03T20:16:54.903Z,14.90
2022-09-03T20:19:33.746Z,14.80
2022-09-03T20:22:12.892Z,14.80
2022-09-03T20:24:50.062Z,14.80
2022-09-03T20:27:32.874Z,14.80
2022-09-03T20:30:04.739Z,14.70
2022-09-03T20:32:48.825Z,14.80
2022-09-03T20:35:31.092Z,14.70
2022-09-03T20:38:14.608Z,14.70
2022-09-03T20:40:47.411Z,14.70
2022-09-03T20:43:36.374Z,14.70
2022-09-03T20:46:16.959Z,14.70
2022-09-03T20:48:55.976Z,14.70
2022-09-03T20:51:28.686Z,14.60
2022-09-03T20:54:14.391Z,14.70
2022-09-03T20:57:08.092Z,14.50
2022-09-03T20:59:51.314Z,14.70
2022-09-03T21:02:29.025Z,14.70
2022-09-03T21:05:09.814Z,14.60
2022-09-03T21:07:48.772Z,14.60
2022-09-03T21:10:25.067Z,14.60
2022-09-03T21:13:02.743Z,14.60
2022-09-03T21:15:39.403Z,14.50
2022-09-03T21:18:17.471Z,14.60
2022-09-03T21:20:50.012Z,14.60
2022-09-03T21:23:22.710Z,14.50
2022-09-03T21:25:58.500Z,14.60
2022-09-03T21:28:32.442Z,14.60
2022-09-03T21:31:08.205Z,14.70
2022-09-03T21:33:39.644Z,14.70
2022-09-03T21:36:11.528Z,14.70
2022-09-03T21:38:49.289Z,14.60
2022-09-03T21:41:24.751Z,14.70
2022-09-03T21:43:59.359Z,14.70
2022-09-03T21:46:33.835Z,14.50
2022-09-03T21:49:06.707Z,14.60
2022-09-03T21:51:39.749Z,14.50
2022-09-03T21:54:11.650Z,14.50
2022-09-03T21:56:59.157Z,14.50
2022-09-03T22:00:07.447Z,14.40
2022-09-03T22:02:36.868Z,14.40
2022-09-03T22:05:05.974Z,14.40
2022-09-03T22:07:53.340Z,14.30
2022-09-03T22:10:28.429Z,14.30
2022-09-03T22:13:09.479Z,14.20
2022-09-03T22:15:38.941Z,14.20
2022-09-03T22:18:17.561Z,14.20
2022-09-03T22:21:00.200Z,14.20
2022-09-03T22:23:42.750Z,14.20
2022-09-03T22:26:22.612Z,14.20
2022-09-03T22:29:03.356Z,14.10
2022-09-03T22:31:47.271Z,14.10
2022-09-03T22:34:27.392Z,14.20
2022-09-03T22:37:02.448Z,14.10
2022-09-03T22:39:36.591Z,14.10
2022-09-03T22:42:37.399Z,14.20
2022-09-03T22:45:21.333Z,14.10
2022-09-03T22:48:03.546Z,14.10
2022-09-03T22:50:42.808Z,14.20
2022-09-03T22:53:23.375Z,14.10
2022-09-03T22:56:00.547Z,14.10
2022-09-03T22:58:34.132Z,14.10
2022-09-03T23:01:07.705Z,14.10
2022-09-03T23:03:42.419Z,14.00
2022-09-03T23:06:18.510Z,14.00
2022-09-03T23:08:51.162Z,14.00
2022-09-03T23:11:25.276Z,14.00
2022-09-03T23:14:00.488Z,13.90
2022-09-03T23:16:35.352Z,14.00
2022-09-03T23:21:51.869Z,14.00
2022-09-03T23:24:26.643Z,13.90
2022-09-03T23:26:54.893Z,13.90
2022-09-03T23:29:27.971Z,13.90
2022-09-03T23:31:58.172Z,13.90
2022-09-03T23:34:27.027Z,13.80
2022-09-03T23:37:35.347Z,13.90
2022-09-03T23:40:28.936Z,13.80
2022-09-03T23:43:23.296Z,13.90
2022-09-03T23:46:01.392Z,13.90
2022-09-03T23:48:42.059Z,13.80
2022-09-03T23:51:18.153Z,13.90
2022-09-03T23:54:04.116Z,13.90
2022-09-03T23:56:53.494Z,13.80
2022-09-03T23:59:29.545Z,13.80
